sensor_id;sensor_type;location;lat;lon;timestamp;pressure;altitude;pressure_sealevel;temperature;humidity
60170;BME280;46042;49.444;6.862;2023-11-19T00:01:58;98498.88;;;7.91;100.00
60170;BME280;46042;49.444;6.862;2023-11-19T00:04:25;98489.44;;;7.89;100.00
60170;BME280;46042;49.444;6.862;2023-11-19T00:06:52;98499.75;;;7.92;100.00
60170;BME280;46042;49.444;6.862;2023-11-19T00:09:18;98508.19;;;7.97;100.00
60170;BME280;46042;49.444;6.862;2023-11-19T00:11:45;98512.59;;;7.96;100.00
60170;BME280;46042;49.444;6.862;2023-11-19T00:14:20;98514.00;;;8.02;100.00
60170;BME280;46042;49.444;6.862;2023-11-19T00:16:46;98516.03;;;7.97;100.00
60170;BME280;46042;49.444;6.862;2023-11-19T00:19:13;98514.94;;;8.01;100.00
60170;BME280;46042;49.444;6.862;2023-11-19T00:21:40;98513.44;;;7.97;100.00
60170;BME280;46042;49.444;6.862;2023-11-19T00:24:08;98511.56;;;7.99;100.00
60170;BME280;46042;49.444;6.862;2023-11-19T00:26:34;98502.09;;;7.96;100.00
60170;BME280;46042;49.444;6.862;2023-11-19T00:29:01;98482.53;;;8.02;100.00
60170;BME280;46042;49.444;6.862;2023-11-19T00:31:28;98492.25;;;8.00;100.00
60170;BME280;46042;49.444;6.862;2023-11-19T00:33:55;98482.63;;;8.01;100.00
60170;BME280;46042;49.444;6.862;2023-11-19T00:36:22;98496.56;;;8.01;100.00
60170;BME280;46042;49.444;6.862;2023-11-19T00:38:50;98503.06;;;8.10;100.00
60170;BME280;46042;49.444;6.862;2023-11-19T00:41:19;98501.28;;;8.10;100.00
60170;BME280;46042;49.444;6.862;2023-11-19T00:43:46;98495.19;;;8.10;100.00
60170;BME280;46042;49.444;6.862;2023-11-19T00:46:12;98496.06;;;8.10;100.00
60170;BME280;46042;49.444;6.862;2023-11-19T00:48:40;98482.38;;;8.05;100.00
60170;BME280;46042;49.444;6.862;2023-11-19T00:51:07;98483.59;;;8.14;100.00
60170;BME280;46042;49.444;6.862;2023-11-19T00:53:34;98475.44;;;8.19;100.00
60170;BME280;46042;49.444;6.862;2023-11-19T00:56:00;98469.25;;;8.20;100.00
60170;BME280;46042;49.444;6.862;2023-11-19T00:58:27;98464.13;;;8.18;100.00
60170;BME280;46042;49.444;6.862;2023-11-19T01:00:54;98469.00;;;8.24;100.00
60170;BME280;46042;49.444;6.862;2023-11-19T01:03:20;98461.88;;;8.26;100.00
60170;BME280;46042;49.444;6.862;2023-11-19T01:05:47;98466.47;;;8.23;100.00
60170;BME280;46042;49.444;6.862;2023-11-19T01:08:14;98449.13;;;8.20;100.00
60170;BME280;46042;49.444;6.862;2023-11-19T01:10:42;98442.09;;;8.21;100.00
60170;BME280;46042;49.444;6.862;2023-11-19T01:13:09;98453.16;;;8.26;100.00
60170;BME280;46042;49.444;6.862;2023-11-19T01:15:36;98446.78;;;8.30;100.00
60170;BME280;46042;49.444;6.862;2023-11-19T01:18:03;98466.09;;;8.29;100.00
60170;BME280;46042;49.444;6.862;2023-11-19T01:20:31;98449.22;;;8.33;100.00
60170;BME280;46042;49.444;6.862;2023-11-19T01:23:00;98447.34;;;8.35;100.00
60170;BME280;46042;49.444;6.862;2023-11-19T01:25:27;98445.41;;;8.39;100.00
60170;BME280;46042;49.444;6.862;2023-11-19T01:27:54;98435.25;;;8.47;100.00
60170;BME280;46042;49.444;6.862;2023-11-19T01:30:20;98444.94;;;8.47;100.00
60170;BME280;46042;49.444;6.862;2023-11-19T01:32:47;98444.50;;;8.54;100.00
60170;BME280;46042;49.444;6.862;2023-11-19T01:35:14;98427.72;;;8.57;100.00
60170;BME280;46042;49.444;6.862;2023-11-19T01:37:41;98436.34;;;8.59;100.00
60170;BME280;46042;49.444;6.862;2023-11-19T01:40:08;98431.84;;;8.61;100.00
60170;BME280;46042;49.444;6.862;2023-11-19T01:42:38;98432.59;;;8.63;100.00
60170;BME280;46042;49.444;6.862;2023-11-19T01:45:05;98431.56;;;8.66;100.00
60170;BME280;46042;49.444;6.862;2023-11-19T01:47:36;98436.63;;;8.69;100.00
60170;BME280;46042;49.444;6.862;2023-11-19T01:50:06;98433.06;;;8.70;100.00
60170;BME280;46042;49.444;6.862;2023-11-19T01:52:37;98435.56;;;8.72;100.00
60170;BME280;46042;49.444;6.862;2023-11-19T01:55:04;98436.56;;;8.56;100.00
60170;BME280;46042;49.444;6.862;2023-11-19T01:57:34;98433.25;;;8.67;100.00
60170;BME280;46042;49.444;6.862;2023-11-19T02:00:04;98429.38;;;8.73;100.00
60170;BME280;46042;49.444;6.862;2023-11-19T02:02:31;98421.44;;;8.74;100.00
60170;BME280;46042;49.444;6.862;2023-11-19T02:04:58;98416.91;;;8.76;100.00
60170;BME280;46042;49.444;6.862;2023-11-19T02:07:24;98435.31;;;8.76;100.00
60170;BME280;46042;49.444;6.862;2023-11-19T02:09:52;98427.53;;;8.75;100.00
60170;BME280;46042;49.444;6.862;2023-11-19T02:12:18;98432.47;;;8.79;100.00
60170;BME280;46042;49.444;6.862;2023-11-19T02:14:47;98430.13;;;8.89;100.00
60170;BME280;46042;49.444;6.862;2023-11-19T02:17:30;98413.13;;;8.95;100.00
60170;BME280;46042;49.444;6.862;2023-11-19T02:20:01;98412.19;;;8.96;100.00
60170;BME280;46042;49.444;6.862;2023-11-19T02:22:27;98401.41;;;9.01;100.00
60170;BME280;46042;49.444;6.862;2023-11-19T02:25:00;98402.16;;;9.03;100.00
60170;BME280;46042;49.444;6.862;2023-11-19T02:27:46;98398.94;;;9.12;100.00
60170;BME280;46042;49.444;6.862;2023-11-19T02:30:13;98400.72;;;9.11;100.00
60170;BME280;46042;49.444;6.862;2023-11-19T02:32:42;98390.13;;;9.13;100.00
60170;BME280;46042;49.444;6.862;2023-11-19T02:35:08;98390.78;;;9.17;100.00
60170;BME280;46042;49.444;6.862;2023-11-19T02:37:35;98398.66;;;9.17;100.00
60170;BME280;46042;49.444;6.862;2023-11-19T02:40:02;98394.69;;;9.24;100.00
60170;BME280;46042;49.444;6.862;2023-11-19T02:42:30;98394.69;;;9.24;100.00
60170;BME280;46042;49.444;6.862;2023-11-19T02:44:57;98400.59;;;9.28;100.00
60170;BME280;46042;49.444;6.862;2023-11-19T02:47:28;98395.41;;;9.26;100.00
60170;BME280;46042;49.444;6.862;2023-11-19T02:49:56;98387.97;;;9.33;100.00
60170;BME280;46042;49.444;6.862;2023-11-19T02:52:24;98386.59;;;9.27;100.00
60170;BME280;46042;49.444;6.862;2023-11-19T02:54:51;98382.44;;;9.37;100.00
60170;BME280;46042;49.444;6.862;2023-11-19T02:57:18;98377.78;;;9.41;100.00
60170;BME280;46042;49.444;6.862;2023-11-19T02:59:48;98375.00;;;9.44;100.00
60170;BME280;46042;49.444;6.862;2023-11-19T03:02:15;98374.38;;;9.53;100.00
60170;BME280;46042;49.444;6.862;2023-11-19T03:04:44;98374.59;;;9.63;100.00
60170;BME280;46042;49.444;6.862;2023-11-19T03:07:12;98365.59;;;9.67;100.00
60170;BME280;46042;49.444;6.862;2023-11-19T03:09:40;98372.94;;;9.75;100.00
60170;BME280;46042;49.444;6.862;2023-11-19T03:12:07;98368.84;;;9.84;100.00
60170;BME280;46042;49.444;6.862;2023-11-19T03:14:34;98361.50;;;9.89;100.00
60170;BME280;46042;49.444;6.862;2023-11-19T03:17:02;98366.63;;;9.91;100.00
60170;BME280;46042;49.444;6.862;2023-11-19T03:19:30;98346.88;;;9.98;100.00
60170;BME280;46042;49.444;6.862;2023-11-19T03:21:56;98356.34;;;10.01;100.00
60170;BME280;46042;49.444;6.862;2023-11-19T03:24:23;98344.34;;;10.09;100.00
60170;BME280;46042;49.444;6.862;2023-11-19T03:26:51;98355.50;;;10.13;100.00
60170;BME280;46042;49.444;6.862;2023-11-19T03:29:17;98341.38;;;10.14;100.00
60170;BME280;46042;49.444;6.862;2023-11-19T03:31:44;98348.03;;;10.20;100.00
60170;BME280;46042;49.444;6.862;2023-11-19T03:34:11;98353.06;;;10.23;100.00
60170;BME280;46042;49.444;6.862;2023-11-19T03:36:38;98362.47;;;10.27;100.00
60170;BME280;46042;49.444;6.862;2023-11-19T03:39:05;98351.06;;;10.27;100.00
60170;BME280;46042;49.444;6.862;2023-11-19T03:41:31;98352.13;;;10.37;100.00
60170;BME280;46042;49.444;6.862;2023-11-19T03:44:01;98344.56;;;10.45;100.00
60170;BME280;46042;49.444;6.862;2023-11-19T03:46:28;98345.50;;;10.44;100.00
60170;BME280;46042;49.444;6.862;2023-11-19T03:48:56;98345.19;;;10.49;100.00
60170;BME280;46042;49.444;6.862;2023-11-19T03:51:23;98359.50;;;10.58;100.00
60170;BME280;46042;49.444;6.862;2023-11-19T03:53:50;98353.16;;;10.60;100.00
60170;BME280;46042;49.444;6.862;2023-11-19T03:56:17;98355.59;;;10.63;100.00
60170;BME280;46042;49.444;6.862;2023-11-19T03:58:43;98350.75;;;10.70;100.00
60170;BME280;46042;49.444;6.862;2023-11-19T04:01:13;98345.78;;;10.65;100.00
60170;BME280;46042;49.444;6.862;2023-11-19T04:03:40;98349.06;;;10.56;100.00
60170;BME280;46042;49.444;6.862;2023-11-19T04:06:16;98341.88;;;10.58;100.00
60170;BME280;46042;49.444;6.862;2023-11-19T04:08:43;98332.72;;;10.64;100.00
60170;BME280;46042;49.444;6.862;2023-11-19T04:11:10;98341.25;;;10.67;100.00
60170;BME280;46042;49.444;6.862;2023-11-19T04:13:37;98342.19;;;10.66;100.00
60170;BME280;46042;49.444;6.862;2023-11-19T04:16:04;98341.97;;;10.70;100.00
60170;BME280;46042;49.444;6.862;2023-11-19T04:18:31;98346.28;;;10.71;100.00
60170;BME280;46042;49.444;6.862;2023-11-19T04:20:58;98342.38;;;10.76;100.00
60170;BME280;46042;49.444;6.862;2023-11-19T04:23:25;98352.69;;;10.79;100.00
60170;BME280;46042;49.444;6.862;2023-11-19T04:25:51;98354.38;;;10.80;100.00
60170;BME280;46042;49.444;6.862;2023-11-19T04:28:18;98346.25;;;10.84;100.00
60170;BME280;46042;49.444;6.862;2023-11-19T04:30:45;98336.56;;;10.84;100.00
60170;BME280;46042;49.444;6.862;2023-11-19T04:33:12;98336.44;;;10.86;100.00
60170;BME280;46042;49.444;6.862;2023-11-19T04:35:38;98345.28;;;10.85;100.00
60170;BME280;46042;49.444;6.862;2023-11-19T04:38:05;98344.88;;;10.91;100.00
60170;BME280;46042;49.444;6.862;2023-11-19T04:40:32;98344.25;;;10.87;100.00
60170;BME280;46042;49.444;6.862;2023-11-19T04:43:00;98345.59;;;10.93;100.00
60170;BME280;46042;49.444;6.862;2023-11-19T04:45:27;98344.75;;;10.92;100.00
60170;BME280;46042;49.444;6.862;2023-11-19T04:47:54;98344.09;;;11.02;100.00
60170;BME280;46042;49.444;6.862;2023-11-19T04:50:20;98336.59;;;11.08;100.00
60170;BME280;46042;49.444;6.862;2023-11-19T04:52:48;98327.41;;;11.01;100.00
60170;BME280;46042;49.444;6.862;2023-11-19T04:55:14;98320.44;;;11.13;100.00
60170;BME280;46042;49.444;6.862;2023-11-19T04:57:41;98326.44;;;11.15;100.00
60170;BME280;46042;49.444;6.862;2023-11-19T05:00:10;98326.53;;;11.14;100.00
60170;BME280;46042;49.444;6.862;2023-11-19T05:02:40;98334.84;;;11.20;100.00
60170;BME280;46042;49.444;6.862;2023-11-19T05:05:07;98329.91;;;11.16;100.00
60170;BME280;46042;49.444;6.862;2023-11-19T05:07:35;98335.66;;;11.21;100.00
60170;BME280;46042;49.444;6.862;2023-11-19T05:10:02;98336.75;;;11.18;100.00
60170;BME280;46042;49.444;6.862;2023-11-19T05:12:30;98343.81;;;11.18;100.00
60170;BME280;46042;49.444;6.862;2023-11-19T05:14:58;98356.56;;;11.24;100.00
60170;BME280;46042;49.444;6.862;2023-11-19T05:17:24;98355.22;;;11.30;100.00
60170;BME280;46042;49.444;6.862;2023-11-19T05:19:51;98354.66;;;11.26;100.00
60170;BME280;46042;49.444;6.862;2023-11-19T05:22:18;98362.56;;;11.26;100.00
60170;BME280;46042;49.444;6.862;2023-11-19T05:24:47;98363.50;;;11.25;100.00
60170;BME280;46042;49.444;6.862;2023-11-19T05:27:15;98359.06;;;11.26;100.00
60170;BME280;46042;49.444;6.862;2023-11-19T05:29:41;98370.47;;;11.26;100.00
60170;BME280;46042;49.444;6.862;2023-11-19T05:32:09;98357.53;;;11.34;100.00
60170;BME280;46042;49.444;6.862;2023-11-19T05:34:36;98364.84;;;11.31;100.00
60170;BME280;46042;49.444;6.862;2023-11-19T05:37:03;98357.66;;;11.33;100.00
60170;BME280;46042;49.444;6.862;2023-11-19T05:39:32;98356.81;;;11.32;100.00
60170;BME280;46042;49.444;6.862;2023-11-19T05:41:58;98357.78;;;11.31;100.00
60170;BME280;46042;49.444;6.862;2023-11-19T05:44:25;98360.88;;;11.25;100.00
60170;BME280;46042;49.444;6.862;2023-11-19T05:46:52;98360.00;;;11.24;100.00
60170;BME280;46042;49.444;6.862;2023-11-19T05:49:18;98364.34;;;11.26;100.00
60170;BME280;46042;49.444;6.862;2023-11-19T05:51:45;98362.03;;;11.21;100.00
60170;BME280;46042;49.444;6.862;2023-11-19T05:54:12;98361.47;;;11.29;100.00
60170;BME280;46042;49.444;6.862;2023-11-19T05:56:40;98360.75;;;11.27;100.00
60170;BME280;46042;49.444;6.862;2023-11-19T05:59:07;98369.28;;;11.30;100.00
60170;BME280;46042;49.444;6.862;2023-11-19T06:01:42;98375.50;;;11.29;100.00
60170;BME280;46042;49.444;6.862;2023-11-19T06:04:08;98375.84;;;11.24;100.00
60170;BME280;46042;49.444;6.862;2023-11-19T06:06:36;98379.72;;;11.32;100.00
60170;BME280;46042;49.444;6.862;2023-11-19T06:09:03;98360.41;;;11.31;100.00
60170;BME280;46042;49.444;6.862;2023-11-19T06:11:34;98365.06;;;11.28;100.00
60170;BME280;46042;49.444;6.862;2023-11-19T06:14:00;98358.50;;;11.33;100.00
60170;BME280;46042;49.444;6.862;2023-11-19T06:16:27;98359.19;;;11.24;100.00
60170;BME280;46042;49.444;6.862;2023-11-19T06:18:54;98371.75;;;11.20;100.00
60170;BME280;46042;49.444;6.862;2023-11-19T06:21:21;98363.09;;;11.18;100.00
60170;BME280;46042;49.444;6.862;2023-11-19T06:23:47;98375.84;;;11.24;100.00
60170;BME280;46042;49.444;6.862;2023-11-19T06:26:15;98392.13;;;11.18;100.00
60170;BME280;46042;49.444;6.862;2023-11-19T06:28:42;98387.72;;;11.30;100.00
60170;BME280;46042;49.444;6.862;2023-11-19T06:31:09;98396.84;;;11.26;100.00
60170;BME280;46042;49.444;6.862;2023-11-19T06:33:35;98394.19;;;11.26;100.00
60170;BME280;46042;49.444;6.862;2023-11-19T06:36:02;98407.06;;;11.31;100.00
60170;BME280;46042;49.444;6.862;2023-11-19T06:38:29;98410.50;;;11.31;100.00
60170;BME280;46042;49.444;6.862;2023-11-19T06:40:56;98398.50;;;11.27;100.00
60170;BME280;46042;49.444;6.862;2023-11-19T06:43:22;98410.00;;;11.26;100.00
60170;BME280;46042;49.444;6.862;2023-11-19T06:45:49;98404.22;;;11.21;100.00
60170;BME280;46042;49.444;6.862;2023-11-19T06:48:16;98396.50;;;11.31;100.00
60170;BME280;46042;49.444;6.862;2023-11-19T06:50:42;98408.94;;;11.29;100.00
60170;BME280;46042;49.444;6.862;2023-11-19T06:53:09;98432.66;;;11.29;100.00
60170;BME280;46042;49.444;6.862;2023-11-19T06:55:37;98426.44;;;11.30;100.00
60170;BME280;46042;49.444;6.862;2023-11-19T06:58:05;98424.25;;;11.23;100.00
60170;BME280;46042;49.444;6.862;2023-11-19T07:00:31;98428.47;;;11.26;100.00
60170;BME280;46042;49.444;6.862;2023-11-19T07:02:59;98420.03;;;11.21;100.00
60170;BME280;46042;49.444;6.862;2023-11-19T07:05:27;98427.94;;;11.21;100.00
60170;BME280;46042;49.444;6.862;2023-11-19T07:07:54;98427.34;;;11.17;100.00
60170;BME280;46042;49.444;6.862;2023-11-19T07:10:22;98418.69;;;11.15;100.00
60170;BME280;46042;49.444;6.862;2023-11-19T07:12:49;98417.53;;;11.19;100.00
60170;BME280;46042;49.444;6.862;2023-11-19T07:15:17;98428.28;;;11.16;100.00
60170;BME280;46042;49.444;6.862;2023-11-19T07:17:44;98425.97;;;11.12;100.00
60170;BME280;46042;49.444;6.862;2023-11-19T07:20:12;98434.84;;;11.10;100.00
60170;BME280;46042;49.444;6.862;2023-11-19T07:22:43;98430.53;;;11.09;100.00
60170;BME280;46042;49.444;6.862;2023-11-19T07:25:15;98436.84;;;11.07;100.00
60170;BME280;46042;49.444;6.862;2023-11-19T07:27:42;98427.88;;;11.09;100.00
60170;BME280;46042;49.444;6.862;2023-11-19T07:30:09;98424.41;;;11.09;100.00
60170;BME280;46042;49.444;6.862;2023-11-19T07:32:36;98427.75;;;11.11;100.00
60170;BME280;46042;49.444;6.862;2023-11-19T07:35:06;98432.84;;;11.01;100.00
60170;BME280;46042;49.444;6.862;2023-11-19T07:37:33;98439.25;;;11.10;100.00
60170;BME280;46042;49.444;6.862;2023-11-19T07:40:00;98443.25;;;11.16;100.00
60170;BME280;46042;49.444;6.862;2023-11-19T07:42:26;98437.34;;;11.12;100.00
60170;BME280;46042;49.444;6.862;2023-11-19T07:44:53;98446.53;;;11.19;100.00
60170;BME280;46042;49.444;6.862;2023-11-19T07:47:21;98458.25;;;11.15;100.00
60170;BME280;46042;49.444;6.862;2023-11-19T07:49:50;98454.31;;;11.21;100.00
60170;BME280;46042;49.444;6.862;2023-11-19T07:52:17;98451.13;;;11.29;100.00
60170;BME280;46042;49.444;6.862;2023-11-19T07:54:46;98452.25;;;11.37;100.00
60170;BME280;46042;49.444;6.862;2023-11-19T07:57:13;98459.66;;;11.32;100.00
60170;BME280;46042;49.444;6.862;2023-11-19T07:59:40;98455.97;;;11.35;100.00
60170;BME280;46042;49.444;6.862;2023-11-19T08:02:07;98463.19;;;11.44;100.00
60170;BME280;46042;49.444;6.862;2023-11-19T08:04:34;98465.69;;;11.59;100.00
60170;BME280;46042;49.444;6.862;2023-11-19T08:07:01;98467.19;;;11.74;100.00
60170;BME280;46042;49.444;6.862;2023-11-19T08:09:28;98459.03;;;11.77;100.00
60170;BME280;46042;49.444;6.862;2023-11-19T08:11:55;98458.56;;;11.72;100.00
60170;BME280;46042;49.444;6.862;2023-11-19T08:14:23;98457.34;;;11.65;100.00
60170;BME280;46042;49.444;6.862;2023-11-19T08:16:50;98464.06;;;11.69;100.00
60170;BME280;46042;49.444;6.862;2023-11-19T08:19:17;98459.50;;;11.71;100.00
60170;BME280;46042;49.444;6.862;2023-11-19T08:21:44;98450.63;;;11.72;100.00
60170;BME280;46042;49.444;6.862;2023-11-19T08:24:11;98454.00;;;11.74;100.00
60170;BME280;46042;49.444;6.862;2023-11-19T08:26:37;98454.69;;;11.65;100.00
60170;BME280;46042;49.444;6.862;2023-11-19T08:29:05;98456.25;;;11.67;100.00
60170;BME280;46042;49.444;6.862;2023-11-19T08:31:32;98456.66;;;11.74;100.00
60170;BME280;46042;49.444;6.862;2023-11-19T08:33:59;98463.34;;;11.67;100.00
60170;BME280;46042;49.444;6.862;2023-11-19T08:36:25;98477.25;;;11.69;100.00
60170;BME280;46042;49.444;6.862;2023-11-19T08:38:54;98476.00;;;11.86;100.00
60170;BME280;46042;49.444;6.862;2023-11-19T08:41:21;98481.03;;;11.89;100.00
60170;BME280;46042;49.444;6.862;2023-11-19T08:43:48;98476.88;;;11.98;100.00
60170;BME280;46042;49.444;6.862;2023-11-19T08:46:14;98481.03;;;12.02;100.00
60170;BME280;46042;49.444;6.862;2023-11-19T08:48:41;98487.25;;;12.01;100.00
60170;BME280;46042;49.444;6.862;2023-11-19T08:51:08;98476.56;;;12.03;100.00
60170;BME280;46042;49.444;6.862;2023-11-19T08:53:35;98484.81;;;11.98;100.00
60170;BME280;46042;49.444;6.862;2023-11-19T08:56:02;98483.59;;;11.91;100.00
60170;BME280;46042;49.444;6.862;2023-11-19T08:58:30;98485.84;;;11.84;100.00
60170;BME280;46042;49.444;6.862;2023-11-19T09:00:57;98492.19;;;11.81;100.00
60170;BME280;46042;49.444;6.862;2023-11-19T09:03:24;98507.00;;;11.95;100.00
60170;BME280;46042;49.444;6.862;2023-11-19T09:05:57;98495.69;;;12.06;100.00
60170;BME280;46042;49.444;6.862;2023-11-19T09:08:23;98501.97;;;12.17;100.00
60170;BME280;46042;49.444;6.862;2023-11-19T09:10:50;98496.31;;;12.21;100.00
60170;BME280;46042;49.444;6.862;2023-11-19T09:13:17;98491.16;;;12.20;100.00
60170;BME280;46042;49.444;6.862;2023-11-19T09:15:44;98493.19;;;12.16;100.00
60170;BME280;46042;49.444;6.862;2023-11-19T09:18:11;98486.59;;;12.22;100.00
60170;BME280;46042;49.444;6.862;2023-11-19T09:20:38;98483.81;;;12.12;100.00
60170;BME280;46042;49.444;6.862;2023-11-19T09:23:06;98486.56;;;12.11;100.00
60170;BME280;46042;49.444;6.862;2023-11-19T09:25:33;98488.53;;;11.95;100.00
60170;BME280;46042;49.444;6.862;2023-11-19T09:28:03;98497.13;;;11.86;100.00
60170;BME280;46042;49.444;6.862;2023-11-19T09:30:30;98497.19;;;11.73;100.00
60170;BME280;46042;49.444;6.862;2023-11-19T09:33:00;98504.28;;;11.73;100.00
60170;BME280;46042;49.444;6.862;2023-11-19T09:35:27;98503.56;;;11.82;100.00
60170;BME280;46042;49.444;6.862;2023-11-19T09:37:54;98495.91;;;11.79;100.00
60170;BME280;46042;49.444;6.862;2023-11-19T09:40:21;98508.41;;;11.88;100.00
60170;BME280;46042;49.444;6.862;2023-11-19T09:42:48;98509.81;;;11.81;100.00
60170;BME280;46042;49.444;6.862;2023-11-19T09:45:16;98502.47;;;11.73;100.00
60170;BME280;46042;49.444;6.862;2023-11-19T09:47:44;98501.00;;;11.69;100.00
60170;BME280;46042;49.444;6.862;2023-11-19T09:50:17;98500.59;;;11.62;100.00
60170;BME280;46042;49.444;6.862;2023-11-19T09:52:47;98506.72;;;11.63;100.00
60170;BME280;46042;49.444;6.862;2023-11-19T09:55:14;98504.47;;;11.70;100.00
60170;BME280;46042;49.444;6.862;2023-11-19T09:57:41;98503.66;;;11.69;100.00
60170;BME280;46042;49.444;6.862;2023-11-19T10:00:09;98513.88;;;11.74;100.00
60170;BME280;46042;49.444;6.862;2023-11-19T10:02:38;98502.94;;;11.78;100.00
60170;BME280;46042;49.444;6.862;2023-11-19T10:05:07;98505.50;;;11.80;100.00
60170;BME280;46042;49.444;6.862;2023-11-19T10:07:34;98491.91;;;11.73;100.00
60170;BME280;46042;49.444;6.862;2023-11-19T10:10:01;98491.81;;;11.75;100.00
60170;BME280;46042;49.444;6.862;2023-11-19T10:12:30;98499.81;;;11.73;100.00
60170;BME280;46042;49.444;6.862;2023-11-19T10:14:58;98503.13;;;11.64;100.00
60170;BME280;46042;49.444;6.862;2023-11-19T10:17:29;98517.84;;;11.79;100.00
60170;BME280;46042;49.444;6.862;2023-11-19T10:19:59;98508.91;;;11.69;100.00
60170;BME280;46042;49.444;6.862;2023-11-19T10:22:27;98502.38;;;11.62;100.00
60170;BME280;46042;49.444;6.862;2023-11-19T10:24:54;98503.56;;;11.58;100.00
60170;BME280;46042;49.444;6.862;2023-11-19T10:27:24;98498.19;;;11.59;100.00
60170;BME280;46042;49.444;6.862;2023-11-19T10:29:52;98504.69;;;11.91;100.00
60170;BME280;46042;49.444;6.862;2023-11-19T10:32:21;98497.81;;;12.01;100.00
60170;BME280;46042;49.444;6.862;2023-11-19T10:35:04;98505.72;;;12.37;100.00
60170;BME280;46042;49.444;6.862;2023-11-19T10:37:31;98495.00;;;13.20;100.00
60170;BME280;46042;49.444;6.862;2023-11-19T10:39:59;98493.94;;;13.78;100.00
60170;BME280;46042;49.444;6.862;2023-11-19T10:42:26;98497.00;;;14.27;100.00
60170;BME280;46042;49.444;6.862;2023-11-19T10:44:53;98484.63;;;14.59;100.00
60170;BME280;46042;49.444;6.862;2023-11-19T10:47:20;98466.72;;;14.51;100.00
60170;BME280;46042;49.444;6.862;2023-11-19T10:49:52;98463.75;;;14.87;100.00
60170;BME280;46042;49.444;6.862;2023-11-19T10:52:18;98465.50;;;14.55;100.00
60170;BME280;46042;49.444;6.862;2023-11-19T10:54:50;98459.50;;;14.32;100.00
60170;BME280;46042;49.444;6.862;2023-11-19T10:57:20;98472.94;;;14.19;100.00
60170;BME280;46042;49.444;6.862;2023-11-19T10:59:52;98459.19;;;13.71;97.13
60170;BME280;46042;49.444;6.862;2023-11-19T11:02:24;98471.88;;;13.56;100.00
60170;BME280;46042;49.444;6.862;2023-11-19T11:04:54;98477.53;;;13.40;100.00
60170;BME280;46042;49.444;6.862;2023-11-19T11:07:22;98472.00;;;13.32;100.00
60170;BME280;46042;49.444;6.862;2023-11-19T11:10:02;98471.94;;;13.11;100.00
60170;BME280;46042;49.444;6.862;2023-11-19T11:12:36;98463.53;;;12.83;100.00
60170;BME280;46042;49.444;6.862;2023-11-19T11:15:04;98468.56;;;12.63;100.00
60170;BME280;46042;49.444;6.862;2023-11-19T11:17:33;98476.53;;;12.27;100.00
60170;BME280;46042;49.444;6.862;2023-11-19T11:20:01;98476.84;;;12.11;100.00
60170;BME280;46042;49.444;6.862;2023-11-19T11:35:58;98460.50;;;12.64;100.00
60170;BME280;46042;49.444;6.862;2023-11-19T11:38:36;98470.44;;;12.38;100.00
60170;BME280;46042;49.444;6.862;2023-11-19T11:41:21;98475.72;;;12.38;100.00
60170;BME280;46042;49.444;6.862;2023-11-19T11:43:54;98448.25;;;12.75;100.00
60170;BME280;46042;49.444;6.862;2023-11-19T11:49:04;98449.41;;;13.39;99.26
60170;BME280;46042;49.444;6.862;2023-11-19T11:57:12;98439.16;;;13.90;93.52
60170;BME280;46042;49.444;6.862;2023-11-19T11:59:47;98441.84;;;13.78;95.38
60170;BME280;46042;49.444;6.862;2023-11-19T12:02:19;98442.81;;;13.77;99.05
60170;BME280;46042;49.444;6.862;2023-11-19T12:04:50;98446.63;;;14.06;95.02
60170;BME280;46042;49.444;6.862;2023-11-19T12:07:20;98442.81;;;14.20;93.77
60170;BME280;46042;49.444;6.862;2023-11-19T12:09:53;98424.59;;;14.48;91.31
60170;BME280;46042;49.444;6.862;2023-11-19T12:12:26;98429.09;;;14.57;84.42
60170;BME280;46042;49.444;6.862;2023-11-19T12:17:49;98415.81;;;15.19;89.03
60170;BME280;46042;49.444;6.862;2023-11-19T12:20:18;98402.69;;;15.28;86.06
60170;BME280;46042;49.444;6.862;2023-11-19T12:23:04;98404.81;;;15.44;84.87
60170;BME280;46042;49.444;6.862;2023-11-19T12:25:34;98400.88;;;15.38;80.54
60170;BME280;46042;49.444;6.862;2023-11-19T12:28:00;98401.03;;;15.86;89.31
60170;BME280;46042;49.444;6.862;2023-11-19T12:30:31;98405.78;;;15.53;79.23
60170;BME280;46042;49.444;6.862;2023-11-19T12:32:57;98405.66;;;15.74;80.77
60170;BME280;46042;49.444;6.862;2023-11-19T12:35:25;98393.66;;;15.79;89.07
60170;BME280;46042;49.444;6.862;2023-11-19T12:37:52;98393.91;;;16.06;80.01
60170;BME280;46042;49.444;6.862;2023-11-19T12:40:23;98388.47;;;15.98;80.54
60170;BME280;46042;49.444;6.862;2023-11-19T12:42:52;98402.16;;;15.44;80.82
60170;BME280;46042;49.444;6.862;2023-11-19T12:45:20;98395.88;;;16.04;77.96
60170;BME280;46042;49.444;6.862;2023-11-19T12:47:48;98398.38;;;15.36;75.10
60170;BME280;46042;49.444;6.862;2023-11-19T12:50:16;98403.28;;;16.00;80.84
60170;BME280;46042;49.444;6.862;2023-11-19T12:52:57;98397.56;;;15.95;77.52
60170;BME280;46042;49.444;6.862;2023-11-19T12:55:28;98403.53;;;15.28;73.22
60170;BME280;46042;49.444;6.862;2023-11-19T12:57:56;98389.84;;;15.33;80.63
60170;BME280;46042;49.444;6.862;2023-11-19T13:00:26;98385.81;;;15.29;77.46
60170;BME280;46042;49.444;6.862;2023-11-19T13:02:57;98386.22;;;15.24;79.47
60170;BME280;46042;49.444;6.862;2023-11-19T13:05:26;98383.44;;;15.75;79.38
60170;BME280;46042;49.444;6.862;2023-11-19T13:10:29;98395.13;;;15.03;75.67
60170;BME280;46042;49.444;6.862;2023-11-19T13:13:08;98378.16;;;14.75;75.89
60170;BME280;46042;49.444;6.862;2023-11-19T13:15:35;98369.19;;;15.46;75.52
60170;BME280;46042;49.444;6.862;2023-11-19T13:18:02;98374.78;;;15.63;77.51
60170;BME280;46042;49.444;6.862;2023-11-19T13:20:29;98372.13;;;15.92;77.23
60170;BME280;46042;49.444;6.862;2023-11-19T13:23:00;98369.47;;;15.53;71.48
60170;BME280;46042;49.444;6.862;2023-11-19T13:25:27;98367.72;;;16.21;78.04